Time;durP1;ratioP1;P1;durP2;ratioP2;P2;SDS_P1;SDS_P2;PMS_P1;PMS_P2;Temp;Humidity;BMP_temperature;BMP_pressure;BME280_temperature;BME280_humidity;BME280_pressure;Samples;Min_cycle;Max_cycle;Signal;HPM_P1;HPM_P2
2022/01/15 00:00:35;;;;;;;0.00;0.00;;;2.90;99.90;230.40;228845.00;;;;4955089;29;20272;-73
2022/01/15 00:03:07;;;;;;;0.10;0.10;;;2.90;99.90;230.40;228845.00;;;;4955765;29;20189;-73
2022/01/15 00:05:37;;;;;;;0.10;0.10;;;2.90;99.90;230.40;228845.00;;;;4943087;29;20218;-73
2022/01/15 00:08:06;;;;;;;0.10;0.10;;;3.00;99.90;230.40;228845.00;;;;4945141;29;20717;-73
2022/01/15 00:10:35;;;;;;;0.10;0.10;;;3.00;99.90;230.40;228845.00;;;;4939779;29;20226;-72
2022/01/15 00:13:03;;;;;;;0.10;0.10;;;3.00;99.90;230.40;228845.00;;;;4950958;29;20209;-73
2022/01/15 00:15:34;;;;;;;0.10;0.10;;;3.10;99.90;230.40;228845.00;;;;4955517;29;20198;-73
2022/01/15 00:18:09;;;;;;;0.10;0.10;;;3.00;99.90;230.40;228845.00;;;;4955251;29;20233;-73
2022/01/15 00:20:39;;;;;;;0.10;0.10;;;3.10;99.90;230.40;228845.00;;;;4955071;29;20642;-73
2022/01/15 00:23:07;;;;;;;0.10;0.10;;;3.00;99.90;230.40;228845.00;;;;4954807;29;20204;-73
2022/01/15 00:25:35;;;;;;;0.10;0.10;;;3.00;99.90;230.40;228845.00;;;;4954691;29;20206;-73
2022/01/15 00:28:04;;;;;;;0.10;0.10;;;3.00;99.90;230.40;228845.00;;;;4953236;29;20205;-72
2022/01/15 00:30:32;;;;;;;0.10;0.10;;;3.00;99.90;230.40;228845.00;;;;4936372;29;20620;-72
2022/01/15 00:33:00;;;;;;;0.10;0.10;;;3.10;99.90;230.40;228845.00;;;;4952423;29;20261;-73
2022/01/15 00:35:30;;;;;;;0.10;0.10;;;3.10;99.90;230.40;228845.00;;;;4947904;29;20277;-72
2022/01/15 00:38:01;;;;;;;0.10;0.10;;;3.00;99.90;230.40;228845.00;;;;4953469;29;20221;-73
2022/01/15 00:40:28;;;;;;;0.10;0.10;;;3.00;99.90;230.40;228845.00;;;;4954638;29;20221;-73
2022/01/15 00:42:57;;;;;;;0.10;0.10;;;3.10;99.90;230.40;228845.00;;;;4937130;29;20202;-73
2022/01/15 00:45:29;;;;;;;0.10;0.10;;;3.10;99.90;230.40;228845.00;;;;4954317;29;20601;-73
2022/01/15 00:47:57;;;;;;;0.10;0.10;;;3.00;99.90;230.40;228845.00;;;;4954933;29;20198;-73
2022/01/15 00:50:25;;;;;;;0.10;0.10;;;3.00;99.90;230.40;228845.00;;;;4999281;23;20608;-75
2022/01/15 00:52:53;;;;;;;0.10;0.10;;;3.00;99.90;230.40;228845.00;;;;5024965;28;20237;-74
2022/01/15 00:55:23;;;;;;;0.10;0.10;;;3.00;99.90;230.40;228845.00;;;;5025857;28;20538;-74
2022/01/15 00:57:51;;;;;;;0.10;0.10;;;3.00;99.90;230.40;228845.00;;;;5020667;28;20203;-74
2022/01/15 01:00:22;;;;;;;0.10;0.10;;;3.00;99.90;230.40;228845.00;;;;5017096;28;20207;-74
2022/01/15 01:02:51;;;;;;;0.10;0.10;;;3.00;99.90;230.40;228845.00;;;;5034097;28;20555;-74
2022/01/15 01:05:21;;;;;;;0.10;0.10;;;3.00;99.90;230.40;228845.00;;;;5033771;28;20670;-74
2022/01/15 01:07:49;;;;;;;0.10;0.10;;;3.00;99.90;230.40;228845.00;;;;5036673;28;20203;-75
2022/01/15 01:10:48;;;;;;;0.10;0.10;;;3.00;99.90;230.40;228845.00;;;;5039551;28;20249;-74
2022/01/15 01:13:40;;;;;;;0.10;0.10;;;3.00;99.90;230.40;228845.00;;;;5046484;28;20198;-73
2022/01/15 01:24:33;;;;;;;0.10;0.10;;;3.10;99.90;230.40;228845.00;;;;5052848;28;20668;-74
2022/01/15 01:27:06;;;;;;;0.10;0.10;;;3.10;99.90;230.40;228845.00;;;;5054866;28;20198;-74
2022/01/15 01:29:47;;;;;;;0.10;0.10;;;3.20;99.90;230.40;228845.00;;;;5048204;28;20214;-74
2022/01/15 01:32:33;;;;;;;0.10;0.10;;;3.20;99.90;230.40;228845.00;;;;5036915;28;20199;-75
2022/01/15 01:35:08;;;;;;;0.10;0.10;;;3.20;99.90;230.40;228845.00;;;;5036341;28;20198;-74
2022/01/15 01:37:40;;;;;;;0.10;0.10;;;3.20;99.90;230.40;228845.00;;;;5051086;28;20201;-74
2022/01/15 01:40:19;;;;;;;0.10;0.10;;;3.20;99.90;230.40;228845.00;;;;5051228;28;20226;-74
2022/01/15 01:43:01;;;;;;;0.10;0.10;;;3.10;99.90;230.40;228845.00;;;;5045549;28;20201;-74
2022/01/15 01:45:31;;;;;;;0.10;0.10;;;3.20;99.90;230.40;228845.00;;;;5051591;28;20579;-74
2022/01/15 01:47:59;;;;;;;0.10;0.10;;;3.20;99.90;230.40;228845.00;;;;5035434;28;20225;-74
2022/01/15 01:50:30;;;;;;;0.10;0.10;;;3.00;99.90;24.50;103520.00;;;;5031609;28;20277;-75
2022/01/15 01:52:59;;;;;;;0.10;0.10;;;3.10;99.90;24.50;103864.00;;;;5036963;28;20675;-75
2022/01/15 01:55:29;;;;;;;0.10;0.10;;;3.10;99.90;24.40;103954.00;;;;5049866;28;20197;-74
2022/01/15 01:57:59;;;;;;;0.10;0.10;;;3.00;99.90;24.50;102720.00;;;;5031282;28;20195;-73
2022/01/15 02:00:31;;;;;;;0.10;0.10;;;3.00;99.90;24.40;103293.00;;;;5031505;28;20219;-74
2022/01/15 02:03:01;;;;;;;0.10;0.10;;;3.00;99.90;24.40;103642.00;;;;5031219;28;20670;-72
2022/01/15 02:05:30;;;;;;;0.10;0.10;;;3.00;99.90;24.50;104087.00;;;;5031290;28;20183;-73
2022/01/15 02:07:58;;;;;;;0.10;0.10;;;3.10;99.90;24.50;104094.00;;;;5031374;28;20708;-72
2022/01/15 02:10:27;;;;;;;0.10;0.10;;;3.10;99.90;24.50;104273.00;;;;5048397;28;20272;-73
2022/01/15 02:12:55;;;;;;;0.10;0.10;;;3.00;99.90;24.40;104074.00;;;;5040537;28;20195;-73
2022/01/15 02:15:24;;;;;;;0.10;0.10;;;3.00;99.90;24.70;102389.00;;;;5038372;28;20193;-72
2022/01/15 02:17:54;;;;;;;0.10;0.10;;;3.00;99.90;25.10;101669.00;;;;5047931;28;20271;-73
2022/01/15 02:20:59;;;;;;;0.10;0.10;;;3.00;99.90;24.50;103221.00;;;;5032145;28;20227;-73
2022/01/15 02:23:33;;;;;;;0.10;0.10;;;3.10;99.90;24.80;101987.00;;;;5031166;28;20183;-72
2022/01/15 02:26:04;;;;;;;0.10;0.10;;;3.00;99.90;24.50;103232.00;;;;5046659;28;20197;-74
2022/01/15 02:28:36;;;;;;;0.10;0.10;;;3.00;99.90;25.10;101366.00;;;;5044302;28;20265;-74
2022/01/15 02:31:08;;;;;;;0.10;0.10;;;3.10;99.90;24.50;103192.00;;;;5050698;28;20758;-74
2022/01/15 02:33:37;;;;;;;0.10;0.10;;;3.10;99.90;24.50;103268.00;;;;5049108;28;20649;-74
2022/01/15 02:36:10;;;;;;;0.10;0.10;;;3.20;99.90;24.60;102608.00;;;;5035865;28;20406;-74
2022/01/15 02:38:38;;;;;;;0.10;0.10;;;3.20;99.90;24.60;102875.00;;;;5042270;28;20202;-73
2022/01/15 02:41:06;;;;;;;0.10;0.10;;;3.30;99.90;24.60;102881.00;;;;5046817;28;20210;-74
2022/01/15 02:43:36;;;;;;;0.10;0.10;;;3.30;99.90;24.60;102611.00;;;;5043926;28;20269;-74
2022/01/15 02:46:19;;;;;;;0.10;0.10;;;3.30;99.90;24.50;103475.00;;;;5030213;28;20191;-74
2022/01/15 02:48:48;;;;;;;0.10;0.10;;;3.10;99.90;24.50;103065.00;;;;5030583;28;20230;-74
2022/01/15 02:51:19;;;;;;;0.10;0.10;;;3.10;99.90;24.70;102137.00;;;;5030536;28;20214;-74
2022/01/15 02:53:54;;;;;;;0.10;0.10;;;3.00;99.90;24.50;103053.00;;;;5030534;28;20250;-73
2022/01/15 02:56:24;;;;;;;0.10;0.10;;;3.00;99.90;24.40;103863.00;;;;5032545;28;20268;-73
2022/01/15 02:58:52;;;;;;;0.10;0.10;;;3.00;99.90;24.40;104016.00;;;;5034018;28;20194;-74
2022/01/15 03:01:21;;;;;;;0.10;0.10;;;3.00;99.90;24.50;104073.00;;;;5036630;28;20214;-74
2022/01/15 03:03:49;;;;;;;0.10;0.10;;;3.00;99.90;24.50;104006.00;;;;5050248;28;20585;-73
2022/01/15 03:06:21;;;;;;;0.10;0.10;;;3.10;99.90;25.00;101383.00;;;;5045257;28;20198;-73
2022/01/15 03:08:51;;;;;;;0.10;0.10;;;3.00;99.90;24.50;102577.00;;;;5031385;28;20229;-74
2022/01/15 03:11:20;;;;;;;0.10;0.10;;;3.00;99.90;24.50;102929.00;;;;5031623;28;20215;-73
2022/01/15 03:13:49;;;;;;;0.10;0.10;;;3.00;99.90;24.70;102031.00;;;;5048485;28;20607;-73
2022/01/15 03:16:20;;;;;;;0.10;0.10;;;3.00;99.90;24.60;102306.00;;;;5053937;28;20194;-74
2022/01/15 03:18:50;;;;;;;0.10;0.10;;;3.00;99.90;24.70;102007.00;;;;5053740;28;20197;-73
2022/01/15 03:21:19;;;;;;;0.10;0.10;;;3.10;99.90;24.50;103656.00;;;;5037147;28;20583;-74
2022/01/15 03:23:48;;;;;;;0.10;0.10;;;3.10;99.90;24.70;102194.00;;;;5033262;28;20195;-72
2022/01/15 03:26:16;;;;;;;0.10;0.10;;;3.10;99.90;24.50;103495.00;;;;5037308;28;20199;-73
2022/01/15 03:28:44;;;;;;;0.10;0.10;;;3.10;99.90;24.90;101753.00;;;;5036973;28;20195;-73
2022/01/15 03:31:13;;;;;;;0.10;0.10;;;3.10;99.90;25.00;101696.00;;;;5030304;28;20710;-73
2022/01/15 03:33:41;;;;;;;0.10;0.10;;;3.10;99.90;24.60;102684.00;;;;5030551;28;20237;-74
2022/01/15 03:36:10;;;;;;;0.10;0.10;;;3.10;99.90;24.90;101689.00;;;;5039439;28;20610;-73
2022/01/15 03:38:39;;;;;;;0.10;0.10;;;3.10;99.90;24.50;103011.00;;;;5037698;28;20650;-74
2022/01/15 03:41:07;;;;;;;0.10;0.10;;;3.10;99.90;24.50;103219.00;;;;5037814;28;20737;-73
2022/01/15 03:43:35;;;;;;;0.10;0.10;;;3.10;99.90;24.60;102496.00;;;;5040634;28;20194;-75
2022/01/15 03:46:03;;;;;;;0.10;0.10;;;3.00;99.90;24.40;103593.00;;;;5049636;28;20209;-77
2022/01/15 03:48:31;;;;;;;0.10;0.10;;;3.00;99.90;24.70;102110.00;;;;5030507;28;20241;-74
2022/01/15 03:51:00;;;;;;;0.10;0.10;;;3.10;99.90;24.60;102644.00;;;;5039791;28;20285;-73
2022/01/15 03:53:28;;;;;;;0.10;0.10;;;3.10;99.90;24.60;102589.00;;;;5039122;28;20195;-73
2022/01/15 03:55:57;;;;;;;0.10;0.10;;;3.10;99.90;24.50;103658.00;;;;5028941;28;20670;-73
2022/01/15 03:58:25;;;;;;;0.10;0.10;;;3.10;99.90;24.60;103736.00;;;;5032044;28;20624;-73
2022/01/15 04:00:53;;;;;;;0.10;0.10;;;3.20;99.90;24.60;103809.00;;;;5035988;28;20226;-75
2022/01/15 04:03:21;;;;;;;0.10;0.10;;;3.20;99.90;24.80;102255.00;;;;5048731;28;20306;-74
2022/01/15 04:05:49;;;;;;;0.10;0.10;;;3.20;99.90;25.00;101712.00;;;;5049188;28;20195;-74
2022/01/15 04:08:17;;;;;;;0.10;0.10;;;3.20;99.90;24.90;101943.00;;;;5034740;28;20191;-75
2022/01/15 04:10:45;;;;;;;0.17;0.17;;;3.20;99.90;24.60;103430.00;;;;5041961;28;20622;-74
2022/01/15 04:13:15;;;;;;;0.10;0.10;;;3.20;99.90;24.60;103665.00;;;;5050173;28;20205;-74
2022/01/15 04:15:44;;;;;;;0.10;0.10;;;3.20;99.90;24.50;103749.00;;;;5052958;28;20186;-75
2022/01/15 04:18:11;;;;;;;0.10;0.10;;;3.20;99.90;24.60;103934.00;;;;5050877;28;20187;-74
2022/01/15 04:20:39;;;;;;;0.10;0.10;;;3.20;99.90;24.60;103933.00;;;;5041253;28;20218;-73
2022/01/15 04:23:07;;;;;;;0.10;0.10;;;3.20;99.90;25.10;101639.00;;;;5033541;28;20191;-74
2022/01/15 04:25:35;;;;;;;0.10;0.10;;;3.20;99.90;25.30;101454.00;;;;5033738;28;20199;-76
2022/01/15 04:28:08;;;;;;;0.10;0.10;;;3.20;99.90;24.80;102536.00;;;;5040961;28;20203;-75
2022/01/15 04:30:40;;;;;;;0.10;0.10;;;3.20;99.90;24.70;102698.00;;;;5040620;28;20578;-74
2022/01/15 04:33:09;;;;;;;0.10;0.10;;;3.30;99.90;25.10;101758.00;;;;5034350;28;20195;-74
2022/01/15 04:35:36;;;;;;;0.10;0.10;;;3.30;99.90;24.90;101919.00;;;;5032873;28;20253;-76
2022/01/15 04:38:09;;;;;;;0.10;0.10;;;3.30;99.90;24.60;103440.00;;;;5033331;28;20257;-76
2022/01/15 04:40:37;;;;;;;0.10;0.10;;;3.20;99.90;24.60;103876.00;;;;5043013;28;20360;-76
2022/01/15 04:43:05;;;;;;;0.10;0.10;;;3.30;99.90;24.60;103991.00;;;;5040631;28;20224;-74
2022/01/15 04:45:33;;;;;;;0.10;0.10;;;3.20;99.90;24.60;104075.00;;;;5047776;28;20191;-75
2022/01/15 04:48:02;;;;;;;0.10;0.10;;;3.20;99.90;24.60;104094.00;;;;5033752;28;20253;-75
2022/01/15 04:50:30;;;;;;;0.10;0.10;;;3.20;99.90;24.60;104165.00;;;;5033640;28;20561;-75
2022/01/15 04:52:58;;;;;;;0.10;0.10;;;3.20;99.90;230.40;228845.00;;;;5033002;28;20249;-75
2022/01/15 04:55:26;;;;;;;0.10;0.10;;;3.20;99.90;230.40;228845.00;;;;5031279;28;20670;-74
2022/01/15 04:57:54;;;;;;;0.10;0.10;;;3.20;99.90;230.40;228845.00;;;;5034403;28;20536;-74
2022/01/15 05:00:22;;;;;;;0.10;0.10;;;3.20;99.90;230.40;228845.00;;;;5044335;28;20230;-74
2022/01/15 05:02:50;;;;;;;0.10;0.10;;;3.10;99.90;230.40;228845.00;;;;5031953;28;20612;-74
2022/01/15 05:05:19;;;;;;;0.10;0.10;;;3.00;99.90;230.40;228845.00;;;;5032231;28;20210;-74
2022/01/15 05:07:47;;;;;;;0.10;0.10;;;3.00;99.90;230.40;228845.00;;;;5032051;28;20609;-73
2022/01/15 05:10:17;;;;;;;0.10;0.10;;;3.00;99.90;230.40;228845.00;;;;5048900;28;20214;-73
2022/01/15 05:12:47;;;;;;;0.10;0.10;;;3.00;99.90;230.40;228845.00;;;;5049369;28;20198;-74
2022/01/15 05:15:18;;;;;;;0.10;0.10;;;3.00;99.90;230.40;228845.00;;;;5049324;28;20240;-73
2022/01/15 05:17:48;;;;;;;0.10;0.10;;;3.00;99.90;230.40;228845.00;;;;5048769;28;20195;-73
2022/01/15 05:20:18;;;;;;;0.10;0.10;;;3.00;99.90;230.40;228845.00;;;;5032083;28;20636;-74
2022/01/15 05:22:48;;;;;;;0.10;0.10;;;3.00;99.90;230.40;228845.00;;;;5032575;28;20252;-73
2022/01/15 05:25:18;;;;;;;0.10;0.10;;;3.00;99.90;230.40;228845.00;;;;5040189;28;20217;-74
2022/01/15 05:27:47;;;;;;;0.10;0.10;;;3.00;99.90;230.40;228845.00;;;;5042664;28;20561;-73
2022/01/15 05:30:15;;;;;;;0.10;0.10;;;3.10;99.90;230.40;228845.00;;;;5031463;28;20215;-74
2022/01/15 05:32:43;;;;;;;0.10;0.10;;;3.10;99.90;230.40;228845.00;;;;5039901;28;20199;-73
2022/01/15 05:35:11;;;;;;;0.10;0.10;;;3.10;99.90;230.40;228845.00;;;;5033968;28;20191;-73
2022/01/15 05:37:40;;;;;;;0.10;0.10;;;3.10;99.90;230.40;228845.00;;;;5040451;28;20206;-74
2022/01/15 05:40:11;;;;;;;0.10;0.10;;;3.20;99.90;230.40;228845.00;;;;5051426;28;20206;-74
2022/01/15 05:42:41;;;;;;;0.10;0.10;;;3.10;99.90;230.40;228845.00;;;;5038107;28;20203;-73
2022/01/15 05:45:11;;;;;;;0.10;0.10;;;3.10;99.90;230.40;228845.00;;;;5039595;28;20249;-74
2022/01/15 05:47:39;;;;;;;0.10;0.10;;;3.10;99.90;230.40;228845.00;;;;5032468;28;20190;-75
2022/01/15 05:50:08;;;;;;;0.10;0.10;;;3.10;99.90;230.40;228845.00;;;;5033108;28;20225;-74
2022/01/15 05:52:37;;;;;;;0.10;0.10;;;3.20;99.90;230.40;228845.00;;;;5031644;28;20817;-73
2022/01/15 05:55:06;;;;;;;0.10;0.10;;;3.30;99.90;230.40;228845.00;;;;5032884;28;20199;-72
2022/01/15 05:57:35;;;;;;;0.10;0.10;;;3.20;99.90;230.40;228845.00;;;;5039763;28;20609;-73
2022/01/15 06:00:05;;;;;;;0.10;0.10;;;3.20;99.90;230.40;228845.00;;;;5036089;28;20252;-73
2022/01/15 06:02:41;;;;;;;0.10;0.10;;;3.10;99.90;230.40;228845.00;;;;5031534;28;20227;-75
2022/01/15 06:05:10;;;;;;;0.10;0.10;;;3.00;99.90;230.40;228845.00;;;;5056234;28;20754;-75
2022/01/15 06:07:38;;;;;;;0.10;0.10;;;2.90;99.90;230.40;228845.00;;;;5031198;28;20253;-74
2022/01/15 06:10:08;;;;;;;0.10;0.10;;;3.00;99.90;230.40;228845.00;;;;5034507;28;20191;-73
2022/01/15 06:12:42;;;;;;;0.10;0.10;;;3.00;99.90;230.40;228845.00;;;;5044033;28;20252;-75
2022/01/15 06:15:13;;;;;;;0.10;0.10;;;2.90;99.90;230.40;228845.00;;;;5040630;28;20195;-76
2022/01/15 06:17:42;;;;;;;0.10;0.10;;;2.80;99.90;230.40;228845.00;;;;5033194;28;20581;-73
2022/01/15 06:20:13;;;;;;;0.10;0.10;;;2.90;99.90;230.40;228845.00;;;;5036398;28;20704;-74
2022/01/15 06:22:41;;;;;;;0.10;0.10;;;3.00;99.90;230.40;228845.00;;;;5033515;28;20280;-73
2022/01/15 06:25:10;;;;;;;0.10;0.10;;;3.10;99.90;230.40;228845.00;;;;5033877;28;20191;-73
2022/01/15 06:27:39;;;;;;;0.10;0.10;;;3.10;99.90;230.40;228845.00;;;;5035419;28;20198;-74
2022/01/15 06:30:08;;;;;;;0.10;0.10;;;3.10;99.90;230.40;228845.00;;;;5038360;28;20219;-73
2022/01/15 06:32:36;;;;;;;0.10;0.10;;;3.10;99.90;230.40;228845.00;;;;5037157;28;20191;-74
2022/01/15 06:35:08;;;;;;;0.10;0.10;;;3.10;99.90;230.40;228845.00;;;;5051167;28;20268;-74
2022/01/15 06:37:37;;;;;;;0.10;0.10;;;3.10;99.90;230.40;228845.00;;;;5040356;28;20199;-75
2022/01/15 06:40:07;;;;;;;0.10;0.10;;;3.20;99.90;230.40;228845.00;;;;5033709;28;20195;-72
2022/01/15 06:42:36;;;;;;;0.10;0.10;;;3.20;99.90;230.40;228845.00;;;;5034175;28;20237;-73
2022/01/15 06:45:07;;;;;;;0.10;0.10;;;3.10;99.90;230.40;228845.00;;;;5035477;28;20187;-71
2022/01/15 06:47:36;;;;;;;0.10;0.10;;;3.10;99.90;230.40;228845.00;;;;5045567;28;20683;-74
2022/01/15 06:50:06;;;;;;;0.10;0.10;;;3.20;99.90;230.40;228845.00;;;;5053268;28;20191;-73
2022/01/15 06:52:37;;;;;;;0.10;0.10;;;3.10;99.90;230.40;228845.00;;;;5056784;28;20395;-74
2022/01/15 06:55:07;;;;;;;0.10;0.10;;;3.20;99.90;230.40;228845.00;;;;5049432;28;20431;-74
2022/01/15 06:57:37;;;;;;;0.10;0.10;;;3.20;99.90;230.40;228845.00;;;;5056118;28;20303;-74
2022/01/15 07:00:09;;;;;;;0.10;0.10;;;3.20;99.90;230.40;228845.00;;;;5047519;28;20195;-75
2022/01/15 07:02:38;;;;;;;0.10;0.10;;;3.20;99.90;230.40;228845.00;;;;5044823;28;20215;-75
2022/01/15 07:05:07;;;;;;;0.10;0.10;;;3.20;99.90;230.40;228845.00;;;;5045914;28;20221;-74
2022/01/15 07:07:40;;;;;;;0.10;0.10;;;3.20;99.90;230.40;228845.00;;;;5043505;28;20221;-74
2022/01/15 07:10:10;;;;;;;0.10;0.10;;;3.20;99.90;230.40;228845.00;;;;5059765;28;20214;-75
2022/01/15 07:12:38;;;;;;;0.10;0.10;;;3.20;99.90;230.40;228845.00;;;;5038323;28;20592;-74
2022/01/15 07:15:08;;;;;;;0.10;0.10;;;3.20;99.90;230.40;228845.00;;;;5034093;28;20202;-74
2022/01/15 07:17:43;;;;;;;0.10;0.10;;;3.20;99.90;230.40;228845.00;;;;5046340;28;20210;-75
2022/01/15 07:20:13;;;;;;;0.10;0.10;;;3.20;99.90;230.40;228845.00;;;;5032518;28;20248;-75
2022/01/15 07:22:42;;;;;;;0.10;0.10;;;3.20;99.90;230.40;228845.00;;;;5049535;28;20275;-75
2022/01/15 07:25:12;;;;;;;0.10;0.10;;;3.20;99.90;230.40;228845.00;;;;5051726;28;20278;-75
2022/01/15 07:27:40;;;;;;;0.10;0.10;;;3.20;99.90;230.40;228845.00;;;;5044535;28;20202;-75
2022/01/15 07:30:13;;;;;;;0.10;0.10;;;3.20;99.90;230.40;228845.00;;;;5033143;28;20272;-75
2022/01/15 07:32:43;;;;;;;0.10;0.10;;;3.10;99.90;230.40;228845.00;;;;5042914;28;20232;-74
2022/01/15 07:35:15;;;;;;;0.10;0.10;;;3.10;99.90;230.40;228845.00;;;;5041496;28;20195;-74
2022/01/15 07:37:44;;;;;;;0.10;0.10;;;3.10;99.90;230.40;228845.00;;;;5035085;28;20186;-74
2022/01/15 07:40:13;;;;;;;0.10;0.10;;;3.00;99.90;230.40;228845.00;;;;5050690;28;20215;-74
2022/01/15 07:42:41;;;;;;;0.10;0.10;;;3.00;99.90;230.40;228845.00;;;;5040947;28;20222;-74
2022/01/15 07:45:14;;;;;;;0.10;0.10;;;3.10;99.90;230.40;228845.00;;;;5035106;28;20194;-74
2022/01/15 07:47:43;;;;;;;0.10;0.10;;;2.90;99.90;230.40;228845.00;;;;5037964;28;20241;-73
2022/01/15 07:50:17;;;;;;;0.10;0.10;;;3.00;99.90;230.40;228845.00;;;;5040955;28;20293;-74
2022/01/15 07:52:45;;;;;;;0.10;0.10;;;3.00;99.90;230.40;228845.00;;;;5035604;28;20199;-74
2022/01/15 07:55:13;;;;;;;0.10;0.10;;;3.00;99.90;230.40;228845.00;;;;5036002;28;20249;-74
2022/01/15 07:58:00;;;;;;;0.10;0.10;;;3.00;99.90;230.40;228845.00;;;;5053160;28;20286;-74
2022/01/15 08:00:29;;;;;;;0.10;0.10;;;3.10;99.90;230.40;228845.00;;;;5042074;28;20230;-75
2022/01/15 08:02:57;;;;;;;0.10;0.10;;;3.10;99.90;230.40;228845.00;;;;5044102;28;20242;-74
2022/01/15 08:05:33;;;;;;;0.10;0.10;;;3.10;99.90;230.40;228845.00;;;;5044318;28;20221;-74
2022/01/15 08:08:07;;;;;;;0.10;0.10;;;3.10;99.90;230.40;228845.00;;;;5043905;28;20198;-75
2022/01/15 08:10:35;;;;;;;0.10;0.10;;;3.20;99.90;230.40;228845.00;;;;5044328;28;20222;-75
2022/01/15 08:13:03;;;;;;;0.10;0.10;;;3.10;99.90;230.40;228845.00;;;;5039775;28;20205;-77
2022/01/15 08:15:33;;;;;;;0.10;0.10;;;3.00;99.90;230.40;228845.00;;;;5053888;28;20232;-76
2022/01/15 08:18:01;;;;;;;0.10;0.10;;;2.90;99.90;230.40;228845.00;;;;5055254;28;20190;-76
2022/01/15 08:20:30;;;;;;;0.10;0.10;;;2.80;99.90;230.40;228845.00;;;;5036592;28;20657;-77
2022/01/15 08:22:58;;;;;;;0.10;0.10;;;2.80;99.90;230.40;228845.00;;;;5034477;28;20226;-76
2022/01/15 08:25:27;;;;;;;0.10;0.10;;;2.80;99.90;230.40;228845.00;;;;5037257;28;20207;-79
2022/01/15 08:27:56;;;;;;;0.10;0.10;;;2.80;99.90;230.40;228845.00;;;;5049483;28;20565;-77
2022/01/15 08:30:24;;;;;;;0.10;0.10;;;2.80;99.90;230.40;228845.00;;;;5035067;28;20713;-77
2022/01/15 08:32:54;;;;;;;0.10;0.10;;;2.70;99.90;230.40;228845.00;;;;5039235;28;20290;-76
2022/01/15 08:35:22;;;;;;;0.10;0.10;;;2.80;99.90;230.40;228845.00;;;;5035939;28;20194;-77
2022/01/15 08:37:51;;;;;;;0.10;0.10;;;2.80;99.90;230.40;228845.00;;;;5040927;28;20743;-76
2022/01/15 08:40:21;;;;;;;0.10;0.10;;;2.90;99.90;230.40;228845.00;;;;5035092;28;20265;-74
2022/01/15 08:42:49;;;;;;;0.10;0.10;;;2.90;99.90;230.40;228845.00;;;;5047072;28;20218;-74
2022/01/15 08:45:19;;;;;;;0.10;0.10;;;2.90;99.90;230.40;228845.00;;;;5051847;28;20187;-75
2022/01/15 08:47:47;;;;;;;0.10;0.10;;;2.90;99.90;230.40;228845.00;;;;5041522;28;20205;-72
2022/01/15 08:50:17;;;;;;;0.10;0.10;;;3.00;99.90;230.40;228845.00;;;;5045065;28;20253;-77
2022/01/15 08:52:45;;;;;;;0.10;0.10;;;2.90;99.90;230.40;228845.00;;;;5036731;28;20674;-76
2022/01/15 08:55:15;;;;;;;0.10;0.10;;;2.90;99.90;230.40;228845.00;;;;5040184;28;20194;-76
2022/01/15 08:57:44;;;;;;;0.10;0.10;;;3.00;99.90;230.40;228845.00;;;;5038565;28;20265;-76
2022/01/15 09:00:18;;;;;;;0.10;0.10;;;2.90;99.90;230.40;228845.00;;;;5041771;28;20233;-77
2022/01/15 09:02:48;;;;;;;0.10;0.10;;;3.00;99.90;230.40;228845.00;;;;5039025;28;20214;-77
2022/01/15 09:05:18;;;;;;;0.10;0.10;;;2.90;99.90;230.40;228845.00;;;;5034115;28;20223;-77
2022/01/15 09:07:47;;;;;;;0.10;0.10;;;3.00;99.90;230.40;228845.00;;;;5041834;28;20199;-74
2022/01/15 09:10:15;;;;;;;0.10;0.10;;;3.00;99.90;230.40;228845.00;;;;5046696;28;20218;-75
2022/01/15 09:12:43;;;;;;;0.10;0.10;;;3.10;99.90;230.40;228845.00;;;;5049576;28;20742;-76
2022/01/15 09:15:28;;;;;;;0.10;0.10;;;3.00;99.90;230.40;228845.00;;;;5040081;28;20195;-76
2022/01/15 09:17:56;;;;;;;0.10;0.10;;;3.00;99.90;230.40;228845.00;;;;5052171;28;20206;-77
2022/01/15 09:20:26;;;;;;;0.10;0.10;;;2.90;99.90;230.40;228845.00;;;;5037615;28;20225;-78
2022/01/15 09:22:54;;;;;;;0.10;0.10;;;2.90;99.90;230.40;228845.00;;;;5047128;28;20739;-76
2022/01/15 09:25:22;;;;;;;0.10;0.10;;;3.00;99.90;230.40;228845.00;;;;5038953;28;20225;-77
2022/01/15 09:30:36;;;;;;;0.10;0.10;;;3.20;99.90;230.40;228845.00;;;;5047329;28;21261;-74
2022/01/15 09:33:05;;;;;;;0.10;0.10;;;3.20;99.90;230.40;228845.00;;;;5039172;28;20205;-74
2022/01/15 09:35:35;;;;;;;0.10;0.10;;;3.20;99.90;230.40;228845.00;;;;5056522;28;20199;-75
2022/01/15 09:38:06;;;;;;;0.10;0.10;;;3.20;99.90;230.40;228845.00;;;;5040454;28;20732;-75
2022/01/15 09:40:35;;;;;;;0.10;0.10;;;3.30;99.90;230.40;228845.00;;;;5035203;28;20541;-74
2022/01/15 09:43:05;;;;;;;0.10;0.10;;;3.40;99.90;230.40;228845.00;;;;5043208;28;20210;-75
2022/01/15 09:45:35;;;;;;;0.10;0.10;;;3.40;99.90;230.40;228845.00;;;;5034970;28;20328;-74
2022/01/15 09:48:06;;;;;;;0.10;0.10;;;3.40;99.90;230.40;228845.00;;;;5035989;28;20207;-74
2022/01/15 09:50:43;;;;;;;0.10;0.10;;;3.40;99.90;230.40;228845.00;;;;5046590;28;20230;-73
2022/01/15 09:53:13;;;;;;;0.10;0.10;;;3.50;99.90;230.40;228845.00;;;;5059815;28;20258;-73
2022/01/15 09:55:41;;;;;;;0.10;0.10;;;3.50;99.90;230.40;228845.00;;;;5047539;28;20221;-73
2022/01/15 09:58:09;;;;;;;0.10;0.10;;;3.60;99.90;230.40;228845.00;;;;5042859;28;20633;-75
2022/01/15 10:00:37;;;;;;;0.10;0.10;;;3.60;99.90;230.40;228845.00;;;;5157120;23;20238;-75
2022/01/15 10:03:06;;;;;;;0.10;0.10;;;3.80;99.90;230.40;228845.00;;;;5027492;28;20214;-75
2022/01/15 10:05:34;;;;;;;0.10;0.10;;;3.90;99.90;230.40;228845.00;;;;5034634;28;20282;-75
2022/01/15 10:08:09;;;;;;;0.10;0.10;;;3.90;99.90;230.40;228845.00;;;;5031966;28;20195;-76
2022/01/15 10:10:40;;;;;;;0.10;0.10;;;4.00;99.90;230.40;228845.00;;;;5016110;28;20235;-75
2022/01/15 10:13:15;;;;;;;0.10;0.10;;;4.00;99.90;230.40;228845.00;;;;5012200;28;20199;-76
2022/01/15 10:15:46;;;;;;;0.10;0.10;;;4.00;99.90;25.10;103615.00;;;;5008129;28;20360;-76
2022/01/15 10:18:24;;;;;;;0.10;0.10;;;4.00;99.90;25.10;103537.00;;;;5016594;28;20238;-76
2022/01/15 10:20:55;;;;;;;0.10;0.10;;;4.00;99.90;25.00;103789.00;;;;5011152;28;20309;-75
2022/01/15 10:23:25;;;;;;;0.10;0.10;;;3.90;99.90;25.10;103891.00;;;;5011464;28;20298;-76
2022/01/15 10:26:14;;;;;;;0.10;0.10;;;4.00;99.90;25.60;101469.00;;;;5014142;28;20195;-75
2022/01/15 10:28:57;;;;;;;0.10;0.10;;;4.10;99.90;25.10;103097.00;;;;4989626;28;20203;-74
2022/01/15 10:31:28;;;;;;;0.10;0.10;;;4.00;99.90;25.20;103735.00;;;;4992060;28;20575;-75
2022/01/15 10:33:58;;;;;;;0.10;0.10;;;4.10;99.90;25.30;102251.00;;;;4992175;28;20204;-76
2022/01/15 10:36:31;;;;;;;0.10;0.10;;;4.10;99.90;25.60;101851.00;;;;4991996;28;20333;-75
2022/01/15 10:39:17;;;;;;;0.10;0.10;;;4.10;99.90;25.30;102727.00;;;;4991044;28;20251;-75
2022/01/15 10:41:46;;;;;;;0.10;0.10;;;4.10;99.90;25.30;102389.00;;;;4992630;28;20224;-75
2022/01/15 10:44:33;;;;;;;0.10;0.10;;;4.10;99.90;25.20;102917.00;;;;4992198;28;20220;-74
2022/01/15 10:47:06;;;;;;;0.10;0.10;;;4.10;99.90;25.20;103497.00;;;;4992036;28;20243;-75
2022/01/15 10:49:35;;;;;;;0.10;0.10;;;4.20;99.90;25.60;101840.00;;;;4992204;28;20651;-76
2022/01/15 10:52:14;;;;;;;0.10;0.10;;;4.20;99.90;25.50;102051.00;;;;4992232;28;20204;-75
2022/01/15 10:54:57;;;;;;;0.10;0.10;;;4.10;99.90;25.20;103107.00;;;;4991975;28;20192;-75
2022/01/15 10:57:28;;;;;;;0.10;0.10;;;4.10;99.90;25.20;102691.00;;;;4991699;28;20667;-74
2022/01/15 11:00:06;;;;;;;0.10;0.10;;;4.10;99.90;25.10;103024.00;;;;4992376;28;20195;-76
2022/01/15 11:02:35;;;;;;;0.10;0.10;;;4.00;99.90;25.10;103357.00;;;;5010414;28;20207;-75
2022/01/15 11:05:20;;;;;;;0.10;0.10;;;4.10;99.90;25.10;103257.00;;;;5011260;28;20239;-75
2022/01/15 11:07:49;;;;;;;0.10;0.10;;;4.10;99.90;25.20;103437.00;;;;5010001;28;20202;-75
2022/01/15 11:10:18;;;;;;;0.10;0.10;;;4.10;99.90;25.20;103660.00;;;;5010280;28;20251;-75
2022/01/15 11:12:46;;;;;;;0.10;0.10;;;4.20;99.90;25.30;103827.00;;;;5011692;28;20191;-75
2022/01/15 11:15:15;;;;;;;0.10;0.10;;;4.20;99.90;25.40;102441.00;;;;5014055;28;20200;-75